Terminal Aerodrome Forecast
Issued by NWS Twin Cities, MN

Home | Current Version | Previous Version | Graphics & Text | Print | Product List | Glossary On
Versions: 1 2 3 4 5 6 7 8 9 10 11 12 13 14 15 16 17 18
000
FTUS43 KMPX 042103 AAA
TAFSTC
TAF AMD
KSTC 042103Z 0421/0518 16007KT 5SM FU SCT040
      TEMPO 0422/0501 6SM HZ
     FM050100 16005KT P6SM SCT250
     FM051300 18010KT P6SM FEW100 SCT250=

USA.gov is the U.S. government's official web portal to all federal, state and local government web resources and services.